Time;durP1;ratioP1;P1;durP2;ratioP2;P2;SDS_P1;SDS_P2;PMS_P1;PMS_P2;Temp;Humidity;BMP_temperature;BMP_pressure;BME280_temperature;BME280_humidity;BME280_pressure;Samples;Min_cycle;Max_cycle;Signal;HPM_P1;HPM_P2
2021/04/05 00:03:27;;;;;;;13.00;7.00;;;;;;;1.22;100.00;97779.98;3666868;80;43729;-25
2021/04/05 00:08:33;;;;;;;14.97;6.97;;;;;;;1.17;100.00;97767.57;3747595;78;42780;-25
2021/04/05 00:13:42;;;;;;;16.67;7.57;;;;;;;1.17;100.00;97736.56;3674178;80;43972;-25
2021/04/05 00:18:49;;;;;;;15.37;7.77;;;;;;;1.13;100.00;97740.41;3664793;80;44014;-25
2021/04/05 00:23:55;;;;;;;16.63;6.93;;;;;;;1.06;100.00;97741.36;3743767;77;44060;-25
2021/04/05 00:29:01;;;;;;;16.30;7.23;;;;;;;1.16;100.00;97744.16;3693715;78;43483;-25
2021/04/05 00:34:07;;;;;;;15.90;7.07;;;;;;;1.14;100.00;97730.66;3749950;77;44085;-27
2021/04/05 00:39:13;;;;;;;14.47;6.77;;;;;;;1.14;100.00;97714.73;3742627;78;43069;-27
2021/04/05 00:44:19;;;;;;;20.20;7.90;;;;;;;1.09;100.00;97688.56;3742531;78;43620;-24
2021/04/05 00:49:27;;;;;;;14.87;7.27;;;;;;;1.01;100.00;97677.23;3755389;78;43330;-24
2021/04/05 00:54:34;;;;;;;19.40;7.37;;;;;;;0.88;100.00;97673.34;3748759;78;44172;-27
2021/04/05 00:59:40;;;;;;;15.13;7.00;;;;;;;0.86;100.00;97647.45;3748742;77;44105;-27
2021/04/05 01:04:45;;;;;;;14.13;6.80;;;;;;;0.98;100.00;97639.50;3763535;77;44005;-26
2021/04/05 01:09:52;;;;;;;17.83;7.63;;;;;;;0.98;100.00;97623.08;3758243;78;43468;-24
2021/04/05 01:14:58;;;;;;;20.90;7.23;;;;;;;1.04;100.00;97623.08;3758971;78;43725;-26
2021/04/05 01:20:06;;;;;;;14.30;7.27;;;;;;;1.04;100.00;97608.49;3760507;78;44086;-24
2021/04/05 01:25:15;;;;;;;10.40;6.33;;;;;;;1.06;100.00;97588.83;3753028;78;44008;-24
2021/04/05 01:30:30;;;;;;;15.10;7.23;;;;;;;1.22;100.00;97595.11;3761110;77;43486;-27
2021/04/05 01:35:41;;;;;;;25.17;7.53;;;;;;;1.25;100.00;97574.58;3676479;79;44623;-25
2021/04/05 01:40:50;;;;;;;12.97;6.47;;;;;;;1.31;100.00;97552.38;3752042;77;44358;-26
2021/04/05 01:45:56;;;;;;;15.13;7.20;;;;;;;1.38;100.00;97555.37;3666477;80;43470;-25
2021/04/05 01:51:06;;;;;;;20.30;7.40;;;;;;;1.37;100.00;97536.44;3749990;78;44035;-25
2021/04/05 01:56:14;;;;;;;17.17;7.37;;;;;;;1.38;100.00;97520.88;3674737;80;43984;-25
2021/04/05 02:01:22;;;;;;;16.47;6.93;;;;;;;1.45;100.00;97510.59;3673147;80;44040;-25
2021/04/05 02:06:28;;;;;;;15.27;6.70;;;;;;;1.51;100.00;97496.34;3744750;78;44082;-25
2021/04/05 02:11:36;;;;;;;16.50;6.93;;;;;;;1.65;100.00;97483.73;3676238;79;44050;-25
2021/04/05 02:16:44;;;;;;;15.73;6.57;;;;;;;1.85;100.00;97450.20;3658290;79;44464;-25
2021/04/05 02:21:51;;;;;;;19.73;6.43;;;;;;;2.14;100.00;97443.72;3659945;80;44383;-25
2021/04/05 02:26:57;;;;;;;13.23;5.97;;;;;;;2.40;100.00;97431.32;3655608;80;43336;-25
2021/04/05 02:32:06;;;;;;;14.73;6.50;;;;;;;2.41;100.00;97413.03;3658390;80;43471;-25
2021/04/05 02:37:14;;;;;;;15.50;6.53;;;;;;;2.44;100.00;97410.62;3644065;80;43122;-24
2021/04/05 02:42:21;;;;;;;12.13;6.67;;;;;;;2.46;100.00;97393.55;3644632;79;44021;-24
2021/04/05 02:47:27;;;;;;;15.03;5.93;;;;;;;2.59;100.00;97393.80;3683739;79;43038;-24
2021/04/05 02:52:36;;;;;;;15.10;7.10;;;;;;;2.74;100.00;97384.45;3733677;78;43666;-24
2021/04/05 02:57:43;;;;;;;14.13;7.17;;;;;;;2.81;100.00;97362.61;3685143;80;43298;-24
2021/04/05 03:02:50;;;;;;;18.93;6.77;;;;;;;2.89;100.00;97353.44;3763674;78;44236;-24
2021/04/05 03:07:57;;;;;;;14.03;6.57;;;;;;;2.91;100.00;97347.02;3689476;80;43019;-24
2021/04/05 03:13:03;;;;;;;16.73;6.60;;;;;;;2.99;100.00;97330.36;3753941;78;43369;-26
2021/04/05 03:18:10;;;;;;;16.70;6.70;;;;;;;2.97;100.00;97321.67;3681856;79;44038;-27
2021/04/05 03:23:17;;;;;;;15.27;6.40;;;;;;;3.02;100.00;97298.64;3739723;77;44031;-24
2021/04/05 03:28:23;;;;;;;15.87;6.90;;;;;;;3.11;100.00;97294.30;3671721;80;43351;-24
2021/04/05 03:33:33;;;;;;;15.23;6.73;;;;;;;3.25;100.00;97284.52;3641968;80;42974;-26
2021/04/05 03:38:39;;;;;;;19.10;6.83;;;;;;;3.26;100.00;97282.20;3636977;80;44056;-24
2021/04/05 03:43:49;;;;;;;14.07;7.33;;;;;;;3.32;100.00;97248.84;3637611;80;44055;-24
2021/04/05 03:49:01;;;;;;;14.37;6.80;;;;;;;3.27;100.00;97251.12;3638970;80;43459;-25
2021/04/05 03:54:09;;;;;;;14.87;7.17;;;;;;;3.29;100.00;97243.33;3641413;79;44122;-24
2021/04/05 03:59:18;;;;;;;15.57;7.17;;;;;;;3.24;100.00;97217.63;3640210;79;43673;-24
2021/04/05 04:04:28;;;;;;;15.63;7.73;;;;;;;3.28;100.00;97200.39;3637794;80;43568;-24
2021/04/05 04:09:34;;;;;;;18.67;7.60;;;;;;;3.33;100.00;97210.59;3636960;80;44089;-24
2021/04/05 04:14:42;;;;;;;17.30;7.23;;;;;;;3.34;100.00;97186.52;3639751;80;43000;-24
2021/04/05 04:19:49;;;;;;;15.17;7.33;;;;;;;3.34;100.00;97170.55;3637433;80;43682;-24
2021/04/05 04:24:55;;;;;;;16.63;7.20;;;;;;;3.44;100.00;97175.80;3637080;80;43739;-23
2021/04/05 04:30:01;;;;;;;17.87;7.63;;;;;;;3.48;100.00;97162.55;3654018;78;43791;-25
2021/04/05 04:35:12;;;;;;;18.03;7.63;;;;;;;3.59;100.00;97156.17;3668179;78;43722;-23
2021/04/05 04:40:22;;;;;;;15.87;7.30;;;;;;;3.59;100.00;97150.84;3697991;79;43363;-25
2021/04/05 04:45:29;;;;;;;18.70;7.50;;;;;;;3.65;100.00;97126.77;3666549;79;43417;-25
2021/04/05 04:50:35;;;;;;;17.80;8.20;;;;;;;3.69;100.00;97126.35;3671947;79;44053;-25
2021/04/05 04:55:43;;;;;;;16.07;8.00;;;;;;;3.73;100.00;97131.36;3666316;79;44572;-24
2021/04/05 05:00:49;;;;;;;16.80;7.67;;;;;;;3.74;100.00;97125.91;3667320;79;43066;-24
2021/04/05 05:05:57;;;;;;;16.00;7.20;;;;;;;4.22;99.50;97116.36;3683979;78;43321;-22
2021/04/05 05:11:05;;;;;;;16.60;7.60;;;;;;;4.59;94.08;97109.48;3686969;78;44126;-22
2021/04/05 05:16:11;;;;;;;20.83;7.90;;;;;;;4.80;90.17;97081.59;3690373;79;44072;-21
2021/04/05 05:21:21;;;;;;;18.63;7.90;;;;;;;4.96;86.83;97086.70;3673393;79;43428;-23
2021/04/05 05:26:29;;;;;;;18.80;8.17;;;;;;;5.01;86.55;97074.55;3686009;79;44434;-22
2021/04/05 05:31:36;;;;;;;17.87;8.70;;;;;;;5.08;85.04;97052.88;3656880;79;75200;-22
2021/04/05 05:36:45;;;;;;;21.67;8.60;;;;;;;5.12;85.50;97057.91;3743283;77;44073;-22
2021/04/05 05:42:01;;;;;;;19.50;8.90;;;;;;;5.13;84.81;97039.05;3743893;77;43374;-22
2021/04/05 05:47:12;;;;;;;23.90;8.80;;;;;;;5.15;84.59;97023.70;3747169;78;44847;-22
2021/04/05 05:52:27;;;;;;;21.00;9.53;;;;;;;5.11;85.56;97013.52;3744040;77;75320;-22
2021/04/05 05:57:37;;;;;;;22.47;9.73;;;;;;;5.15;85.55;97011.70;3602643;81;44024;-22
2021/04/05 06:02:51;;;;;;;15.93;8.77;;;;;;;5.15;86.40;97005.02;3745656;78;43717;-22
2021/04/05 06:08:11;;;;;;;20.57;9.80;;;;;;;5.21;86.05;97008.39;3739115;78;75549;-22
2021/04/05 06:13:22;;;;;;;18.13;10.30;;;;;;;5.24;85.87;97017.91;3663985;79;44086;-22
2021/04/05 06:18:33;;;;;;;25.90;10.53;;;;;;;5.32;87.07;97014.42;3662968;78;44449;-22
2021/04/05 06:23:48;;;;;;;25.23;10.87;;;;;;;5.39;86.08;97018.95;3677275;78;43714;-22
2021/04/05 06:29:02;;;;;;;20.35;10.20;;;;;;;5.49;84.92;97013.97;3689755;78;42874;-22
2021/04/05 06:34:22;;;;;;;21.40;10.77;;;;;;;5.52;83.76;97009.12;3716731;79;43063;-23
2021/04/05 06:39:29;;;;;;;23.47;10.83;;;;;;;5.61;85.80;97001.11;3683808;79;43433;-22
2021/04/05 06:45:15;;;;;;;24.23;11.48;;;;;;;5.70;84.76;97008.16;3703156;79;43474;-23
2021/04/05 06:50:29;;;;;;;23.97;11.00;;;;;;;5.73;84.26;97010.48;3698013;78;44346;-22
2021/04/05 06:55:41;;;;;;;22.07;10.85;;;;;;;5.75;84.35;96995.12;3697829;79;43396;-22
2021/04/05 07:01:05;;;;;;;25.43;11.60;;;;;;;5.75;83.85;96983.61;3697115;79;44059;-23
2021/04/05 07:06:37;;;;;;;23.18;10.48;;;;;;;5.85;79.73;96977.08;3702000;79;43784;-22
2021/04/05 07:11:59;;;;;;;20.73;10.70;;;;;;;5.89;79.58;96964.22;3697119;78;77479;-22
2021/04/05 07:17:13;;;;;;;25.60;11.15;;;;;;;5.93;80.62;96950.04;3690913;79;44401;-22
2021/04/05 07:22:24;;;;;;;25.53;11.00;;;;;;;5.98;79.09;96943.67;3696563;78;44113;-23
2021/04/05 07:27:36;;;;;;;23.73;10.72;;;;;;;6.04;79.84;96933.69;3688980;78;71098;-23
2021/04/05 07:32:47;;;;;;;20.30;10.50;;;;;;;6.14;80.69;96916.95;3687857;79;43087;-22
2021/04/05 07:38:00;;;;;;;21.90;10.63;;;;;;;6.24;78.33;96901.22;3686732;79;43435;-23
2021/04/05 07:43:11;;;;;;;25.97;12.05;;;;;;;6.28;79.22;96895.86;3684938;79;44476;-23
2021/04/05 07:48:22;;;;;;;23.50;11.60;;;;;;;6.28;79.01;96892.67;3684621;79;43682;-21
2021/04/05 07:53:32;;;;;;;20.50;11.10;;;;;;;6.29;79.66;96888.17;3702846;78;43681;-21
2021/04/05 07:58:48;;;;;;;25.52;11.05;;;;;;;6.32;79.06;96873.95;3699065;78;42808;-23
2021/04/05 08:03:58;;;;;;;23.30;10.65;;;;;;;6.39;79.64;96878.11;3688618;78;73273;-23
2021/04/05 08:09:08;;;;;;;22.20;10.80;;;;;;;6.44;80.44;96869.05;3695279;78;44013;-24
2021/04/05 08:14:23;;;;;;;29.72;11.53;;;;;;;6.45;80.42;96861.87;3627953;79;44065;-21
2021/04/05 08:19:34;;;;;;;24.17;11.33;;;;;;;6.51;80.67;96893.26;3694029;78;43709;-23
2021/04/05 08:24:46;;;;;;;24.00;9.93;;;;;;;6.61;81.78;96860.95;3722288;78;44067;-23
2021/04/05 08:29:57;;;;;;;29.95;10.78;;;;;;;6.67;80.53;96856.23;3636232;79;44026;-21
2021/04/05 08:35:32;;;;;;;27.27;12.37;;;;;;;6.74;83.01;96857.22;3652048;79;44115;-22
2021/04/05 08:40:43;;;;;;;24.37;11.35;;;;;;;6.77;83.48;96853.34;3650844;79;44438;-23
2021/04/05 08:45:53;;;;;;;20.15;10.85;;;;;;;6.92;83.32;96838.69;3652197;79;44182;-23
2021/04/05 08:51:03;;;;;;;20.25;10.90;;;;;;;6.96;83.93;96862.77;3649000;81;44166;-22
2021/04/05 08:56:12;;;;;;;24.72;11.53;;;;;;;6.96;83.42;96841.84;3641650;81;44042;-23
2021/04/05 09:01:21;;;;;;;22.02;10.82;;;;;;;6.93;84.75;96852.41;3642772;81;44212;-21
2021/04/05 09:06:32;;;;;;;23.45;9.73;;;;;;;6.93;84.50;96846.56;3647612;79;42980;-22
2021/04/05 09:11:42;;;;;;;22.60;11.22;;;;;;;6.93;85.55;96856.42;3630508;79;43105;-22
2021/04/05 09:17:15;;;;;;;20.97;10.88;;;;;;;7.02;85.62;96848.66;3568176;81;43441;-21
2021/04/05 09:22:51;;;;;;;20.55;10.68;;;;;;;6.98;86.55;96823.27;3651243;79;44084;-22
2021/04/05 09:28:01;;;;;;;20.27;10.57;;;;;;;6.91;87.72;96815.12;3634371;79;77363;-22
2021/04/05 09:33:45;;;;;;;20.90;10.20;;;;;;;6.77;95.26;96819.37;3680527;78;44052;-22
2021/04/05 09:39:27;;;;;;;20.50;10.72;;;;;;;6.40;100.00;96816.92;3626492;79;43692;-23
2021/04/05 09:45:06;;;;;;;21.60;11.05;;;;;;;6.03;100.00;96820.22;3673582;78;44527;-23
2021/04/05 09:50:25;;;;;;;19.60;10.18;;;;;;;5.89;100.00;96823.90;3630045;79;43761;-21
2021/04/05 09:55:35;;;;;;;22.10;10.57;;;;;;;5.77;100.00;96818.09;3709011;78;43135;-21
2021/04/05 10:00:44;;;;;;;20.07;10.60;;;;;;;5.74;100.00;96817.09;3708604;78;43720;-20
2021/04/05 10:05:52;;;;;;;25.65;11.12;;;;;;;5.59;100.00;96814.30;3695896;78;44046;-20
2021/04/05 10:11:00;;;;;;;20.02;9.70;;;;;;;5.52;100.00;96824.81;3696824;78;43685;-19
2021/04/05 10:16:07;;;;;;;15.38;8.00;;;;;;;5.49;100.00;96809.13;3703226;78;44196;-19
2021/04/05 10:21:15;;;;;;;14.03;7.63;;;;;;;5.52;100.00;96806.64;3692697;78;44000;-19
2021/04/05 10:26:23;;;;;;;14.93;7.00;;;;;;;5.47;100.00;96809.78;3711820;78;43325;-19
2021/04/05 10:31:30;;;;;;;13.70;7.10;;;;;;;5.39;100.00;96817.33;3708127;78;43706;-19
2021/04/05 10:36:40;;;;;;;12.63;5.83;;;;;;;5.33;100.00;96826.52;3643773;79;75337;-19
2021/04/05 10:41:50;;;;;;;12.47;6.07;;;;;;;5.23;100.00;96824.00;3704551;78;43450;-19
2021/04/05 10:47:01;;;;;;;12.10;6.80;;;;;;;5.16;100.00;96811.81;3698895;78;43397;-19
2021/04/05 10:52:13;;;;;;;13.18;6.87;;;;;;;5.08;100.00;96823.33;3696762;78;44483;-19
2021/04/05 10:57:22;;;;;;;13.33;5.67;;;;;;;5.03;100.00;96816.81;3702597;78;43181;-19
2021/04/05 11:02:31;;;;;;;13.53;5.60;;;;;;;4.89;100.00;96828.47;3633837;79;42658;-19
2021/04/05 11:07:39;;;;;;;10.23;5.33;;;;;;;4.75;100.00;96839.81;3699467;78;43483;-19
2021/04/05 11:12:47;;;;;;;8.25;4.95;;;;;;;4.65;100.00;96817.76;3700838;78;69115;-19
2021/04/05 11:17:55;;;;;;;8.90;5.00;;;;;;;4.59;100.00;96820.09;3701453;78;69614;-19
2021/04/05 11:23:04;;;;;;;9.20;4.63;;;;;;;4.56;100.00;96830.26;3700972;78;43758;-19
2021/04/05 11:28:13;;;;;;;6.90;4.30;;;;;;;4.59;100.00;96810.77;3703935;78;44181;-19
2021/04/05 11:33:24;;;;;;;1.47;1.00;;;;;;;4.58;100.00;96828.27;3584322;81;43374;-19
2021/04/05 11:38:31;;;;;;;0.90;0.73;;;;;;;2.25;100.00;96921.12;3705309;78;44103;-20
2021/04/05 11:43:40;;;;;;;1.70;0.90;;;;;;;1.43;100.00;96930.88;3649145;79;43380;-20
2021/04/05 11:48:57;;;;;;;1.93;0.80;;;;;;;1.15;100.00;96925.42;3638332;79;43781;-19
2021/04/05 11:54:05;;;;;;;1.20;0.80;;;;;;;1.07;100.00;96938.05;3693195;78;44418;-21
2021/04/05 11:59:16;;;;;;;2.17;0.73;;;;;;;1.04;100.00;96930.39;3682583;78;43358;-20
2021/04/05 12:04:25;;;;;;;1.60;0.87;;;;;;;1.17;100.00;96926.62;3686110;78;43690;-20
2021/04/05 12:09:36;;;;;;;1.27;0.87;;;;;;;1.30;100.00;96927.66;3700655;78;43681;-20
2021/04/05 12:14:45;;;;;;;0.90;0.80;;;;;;;1.43;100.00;96912.30;3682509;78;43706;-22
2021/04/05 12:19:54;;;;;;;1.73;0.80;;;;;;;1.47;100.00;96913.67;3704471;78;44016;-21
2021/04/05 12:25:02;;;;;;;0.77;0.60;;;;;;;1.64;100.00;96913.47;3706872;78;43460;-20
2021/04/05 12:30:24;;;;;;;1.00;0.70;;;;;;;1.65;100.00;96906.33;3700390;78;43692;-20
2021/04/05 12:35:21;;;;;;;0.50;0.50;;;;;;;1.78;100.00;96893.59;3703125;78;43342;-20
2021/04/05 12:40:29;;;;;;;1.33;0.60;;;;;;;1.90;100.00;96900.05;3616837;80;44054;-20
2021/04/05 12:45:37;;;;;;;1.10;0.57;;;;;;;2.09;100.00;96893.34;3689202;78;43364;-20
2021/04/05 12:50:43;;;;;;;1.00;0.70;;;;;;;2.25;100.00;96893.22;3699861;80;43344;-20
2021/04/05 12:55:49;;;;;;;0.70;0.70;;;;;;;2.19;100.00;96907.92;3695594;80;43704;-20
2021/04/05 13:00:56;;;;;;;0.80;0.80;;;;;;;2.27;100.00;96905.87;3694034;80;44135;-20
2021/04/05 13:06:06;;;;;;;2.07;1.00;;;;;;;2.36;100.00;96906.31;3688629;80;43348;-21
2021/04/05 13:11:19;;;;;;;0.83;0.83;;;;;;;2.30;100.00;96917.52;3688877;79;43452;-22
2021/04/05 13:16:30;;;;;;;1.23;1.10;;;;;;;2.38;100.00;96916.78;3696459;78;43503;-20
2021/04/05 13:21:41;;;;;;;1.20;0.90;;;;;;;2.39;100.00;96927.29;3560178;81;44195;-20
2021/04/05 13:26:53;;;;;;;3.37;1.20;;;;;;;2.43;100.00;96937.13;3686607;80;44036;-21
2021/04/05 13:32:01;;;;;;;0.90;0.70;;;;;;;2.40;100.00;96938.74;3682307;80;44068;-21
2021/04/05 13:37:09;;;;;;;4.80;2.60;;;;;;;2.40;100.00;96954.21;3701456;79;43289;-20
2021/04/05 13:42:19;;;;;;;2.17;1.80;;;;;;;2.53;100.00;96946.40;3696145;79;44073;-21
2021/04/05 13:47:31;;;;;;;1.60;1.30;;;;;;;2.50;100.00;96942.70;3699437;78;43873;-21
2021/04/05 13:52:39;;;;;;;1.93;1.40;;;;;;;2.41;100.00;96966.49;3684482;78;43982;-21
2021/04/05 13:57:48;;;;;;;1.30;1.00;;;;;;;1.81;100.00;96986.72;3701804;79;43358;-20
2021/04/05 14:02:56;;;;;;;0.90;0.90;;;;;;;1.53;100.00;97011.80;3686092;79;43455;-21
2021/04/05 14:08:05;;;;;;;1.43;0.50;;;;;;;1.15;100.00;97018.26;3721672;79;44256;-20
2021/04/05 14:13:13;;;;;;;1.63;1.23;;;;;;;0.26;100.00;97066.13;3717090;79;44322;-21
2021/04/05 14:18:25;;;;;;;2.70;2.50;;;;;;;0.06;100.00;97066.47;3716717;79;43433;-22
2021/04/05 14:23:37;;;;;;;1.10;0.73;;;;;;;0.01;100.00;97079.24;3708511;78;44092;-21
2021/04/05 14:28:44;;;;;;;1.87;1.10;;;;;;;-0.04;100.00;97073.02;3704568;78;43341;-20
2021/04/05 14:33:53;;;;;;;1.83;1.63;;;;;;;0.01;100.00;97101.75;3651065;81;44069;-21
2021/04/05 14:39:03;;;;;;;3.27;2.07;;;;;;;-0.03;100.00;97113.08;3696824;79;43448;-21
2021/04/05 14:44:11;;;;;;;2.80;1.10;;;;;;;0.05;100.00;97108.98;3700096;79;44054;-21
2021/04/05 14:49:20;;;;;;;1.00;0.77;;;;;;;0.11;100.00;97095.20;3701318;79;43735;-21
2021/04/05 14:54:30;;;;;;;1.60;1.00;;;;;;;0.20;100.00;97090.46;3631220;81;44388;-22
2021/04/05 14:59:38;;;;;;;1.83;0.87;;;;;;;0.36;100.00;97085.20;3686316;78;43521;-22
2021/04/05 15:04:47;;;;;;;1.67;1.10;;;;;;;0.34;100.00;97088.46;3691836;78;43400;-24
2021/04/05 15:09:58;;;;;;;2.00;1.37;;;;;;;0.40;100.00;97095.41;3684317;79;44044;-22
2021/04/05 15:15:07;;;;;;;1.17;0.80;;;;;;;0.51;100.00;97094.97;3628826;81;44129;-22
2021/04/05 15:20:16;;;;;;;3.03;0.90;;;;;;;0.23;100.00;97127.29;3716211;79;43435;-22
2021/04/05 15:25:24;;;;;;;1.80;0.83;;;;;;;0.10;100.00;97151.78;3692150;79;44027;-23
2021/04/05 15:30:31;;;;;;;1.43;0.90;;;;;;;-0.34;100.00;97168.54;3635608;81;44097;-22
2021/04/05 15:35:39;;;;;;;1.40;0.90;;;;;;;-0.37;100.00;97167.95;3704165;77;43490;-20
2021/04/05 15:40:48;;;;;;;2.70;1.83;;;;;;;-0.30;100.00;97145.80;3726831;77;43408;-20
2021/04/05 15:46:00;;;;;;;1.20;1.00;;;;;;;-0.14;100.00;97140.92;3672048;80;43314;-20
2021/04/05 15:51:10;;;;;;;1.37;0.80;;;;;;;0.02;100.00;97166.97;3733187;78;43735;-20
2021/04/05 15:56:18;;;;;;;2.93;1.10;;;;;;;0.09;100.00;97173.94;3736752;78;43460;-21
2021/04/05 16:01:29;;;;;;;2.87;0.80;;;;;;;0.26;100.00;97177.37;3745435;78;44389;-21
2021/04/05 16:06:37;;;;;;;1.03;0.80;;;;;;;0.30;100.00;97177.45;3632293;80;43444;-21
2021/04/05 16:11:49;;;;;;;2.60;1.20;;;;;;;0.47;100.00;97175.71;3638201;80;43069;-21
2021/04/05 16:16:59;;;;;;;3.47;1.23;;;;;;;0.62;100.00;97178.38;3675794;78;43424;-21
2021/04/05 16:22:07;;;;;;;1.90;0.73;;;;;;;0.60;100.00;97194.88;3738006;78;43807;-21
2021/04/05 16:27:15;;;;;;;0.70;0.60;;;;;;;0.47;100.00;97235.33;3740655;78;44033;-21
2021/04/05 16:32:26;;;;;;;1.80;0.87;;;;;;;0.17;89.64;97219.66;3732039;78;43711;-19
2021/04/05 16:37:36;;;;;;;1.97;0.90;;;;;;;0.01;96.49;97247.87;3729333;78;43382;-20
2021/04/05 16:42:46;;;;;;;3.63;1.13;;;;;;;-0.29;100.00;97255.50;3735949;77;43356;-20
2021/04/05 16:47:53;;;;;;;1.80;1.07;;;;;;;-0.45;100.00;97255.88;3733410;77;44084;-21
2021/04/05 16:53:02;;;;;;;4.10;1.00;;;;;;;-0.55;100.00;97278.73;3731457;78;44050;-20
2021/04/05 16:58:11;;;;;;;1.43;0.80;;;;;;;-0.66;100.00;97275.12;3724720;78;43677;-20
2021/04/05 17:03:22;;;;;;;4.27;1.03;;;;;;;-0.72;100.00;97283.52;3665060;80;44134;-20
2021/04/05 17:08:31;;;;;;;1.87;0.93;;;;;;;-0.69;100.00;97291.68;3723232;78;43460;-20
2021/04/05 17:13:42;;;;;;;13.93;7.50;;;;;;;-0.75;100.00;97296.13;3726579;78;43702;-20
2021/04/05 17:18:50;;;;;;;5.43;1.47;;;;;;;-0.75;100.00;97315.47;3718734;77;43686;-20
2021/04/05 17:24:00;;;;;;;5.73;1.10;;;;;;;-0.57;100.00;97311.89;3732390;77;43701;-19
2021/04/05 17:29:09;;;;;;;4.17;1.30;;;;;;;-0.28;100.00;97309.25;3718010;78;43467;-19
2021/04/05 17:34:19;;;;;;;3.83;1.00;;;;;;;-0.32;100.00;97314.81;3721838;78;44223;-20
2021/04/05 17:39:30;;;;;;;8.50;1.10;;;;;;;-0.37;100.00;97334.16;3729614;78;44063;-20
2021/04/05 17:44:41;;;;;;;4.40;0.97;;;;;;;-0.46;100.00;97344.14;3771647;78;44526;-20
2021/04/05 17:50:00;;;;;;;2.37;0.90;;;;;;;-0.55;100.00;97336.44;3719269;78;44053;-19
2021/04/05 17:55:10;;;;;;;4.23;0.87;;;;;;;-0.74;100.00;97342.28;3733944;77;44078;-20
2021/04/05 18:00:22;;;;;;;3.90;0.93;;;;;;;-0.83;100.00;97346.50;3743078;77;44060;-26
2021/04/05 18:05:59;;;;;;;4.40;1.13;;;;;;;-0.88;100.00;97361.02;3739064;78;44456;-20
2021/04/05 18:11:33;;;;;;;1.60;1.00;;;;;;;-1.02;100.00;97357.61;3715603;78;44492;-20
2021/04/05 18:16:44;;;;;;;3.63;0.97;;;;;;;-1.05;100.00;97360.48;3728882;78;43683;-20
2021/04/05 18:22:33;;;;;;;6.37;1.20;;;;;;;-1.05;100.00;97364.44;3716964;78;44058;-19
2021/04/05 18:27:56;;;;;;;4.00;1.23;;;;;;;-1.14;100.00;97372.57;3690939;77;43463;-20
2021/04/05 18:33:08;;;;;;;3.37;0.87;;;;;;;-1.17;100.00;97371.95;3731217;77;43296;-19
2021/04/05 18:38:17;;;;;;;2.43;0.90;;;;;;;-1.15;100.00;97374.84;3747673;77;43054;-19
2021/04/05 18:43:26;;;;;;;10.53;4.47;;;;;;;-1.04;100.00;97383.31;3738403;77;43362;-19
2021/04/05 18:48:46;;;;;;;2.47;1.10;;;;;;;-1.23;100.00;97397.53;3727555;77;44035;-19
2021/04/05 18:53:56;;;;;;;3.40;1.13;;;;;;;-1.20;100.00;97405.21;3729285;77;43567;-19
2021/04/05 18:59:06;;;;;;;4.87;1.23;;;;;;;-1.07;100.00;97413.93;3753772;77;43373;-19
2021/04/05 19:04:15;;;;;;;1.77;1.07;;;;;;;-1.10;100.00;97431.33;3738372;77;44070;-19
2021/04/05 19:09:24;;;;;;;2.37;1.20;;;;;;;-1.16;100.00;97426.02;3740755;77;44023;-19
2021/04/05 19:14:39;;;;;;;3.43;1.13;;;;;;;-1.13;100.00;97435.54;3741687;77;44087;-19
2021/04/05 19:19:48;;;;;;;2.67;1.00;;;;;;;-1.37;100.00;97448.26;3738928;77;43749;-21
2021/04/05 19:25:06;;;;;;;3.13;1.10;;;;;;;-1.27;100.00;97450.59;3720235;77;44037;-19
2021/04/05 19:30:29;;;;;;;3.03;0.90;;;;;;;-1.22;100.00;97463.94;3728429;77;43579;-19
2021/04/05 19:35:47;;;;;;;1.33;0.80;;;;;;;-1.20;100.00;97440.43;3742134;77;44042;-20
2021/04/05 19:41:24;;;;;;;3.50;1.10;;;;;;;-1.13;100.00;97450.08;3697006;78;44522;-19
2021/04/05 19:46:32;;;;;;;1.90;0.90;;;;;;;-1.11;100.00;97452.97;3631741;80;44082;-20
2021/04/05 19:51:46;;;;;;;2.87;1.00;;;;;;;-1.32;100.00;97455.36;3709029;78;43538;-20
2021/04/05 19:57:13;;;;;;;3.93;1.17;;;;;;;-1.42;100.00;97468.86;3644391;80;43369;-20
2021/04/05 20:02:47;;;;;;;3.30;1.00;;;;;;;-1.43;100.00;97471.14;3689780;78;43202;-20
2021/04/05 20:07:56;;;;;;;3.57;0.97;;;;;;;-1.25;100.00;97467.19;3606825;81;44049;-19
2021/04/05 20:13:19;;;;;;;1.50;0.90;;;;;;;-1.23;100.00;97474.17;3625039;80;44043;-18
2021/04/05 20:18:30;;;;;;;4.73;0.97;;;;;;;-1.17;100.00;97464.45;3672245;78;44541;-19
2021/04/05 20:23:40;;;;;;;2.77;0.90;;;;;;;-1.29;100.00;97471.45;3677591;79;43766;-19
2021/04/05 20:28:49;;;;;;;2.57;0.87;;;;;;;-1.35;100.00;97479.35;3610595;81;43373;-19
2021/04/05 20:34:31;;;;;;;2.53;0.97;;;;;;;-1.42;100.00;97476.79;3609972;81;43366;-19
2021/04/05 20:39:44;;;;;;;2.33;0.80;;;;;;;-1.31;100.00;97482.15;3679080;79;43455;-19
2021/04/05 20:45:03;;;;;;;2.43;0.87;;;;;;;-1.12;98.54;97471.09;3683262;78;44117;-20
2021/04/05 20:50:15;;;;;;;2.80;1.00;;;;;;;-1.06;94.33;97479.06;3695555;78;43394;-21
2021/04/05 20:55:25;;;;;;;1.07;0.80;;;;;;;-1.01;93.73;97478.27;3678175;79;43668;-20
2021/04/05 21:00:35;;;;;;;1.93;1.03;;;;;;;-1.11;93.89;97487.33;3677219;78;43425;-20
2021/04/05 21:05:42;;;;;;;2.10;0.83;;;;;;;-1.17;94.07;97497.50;3625065;79;44100;-20
2021/04/05 21:10:48;;;;;;;2.27;0.87;;;;;;;-1.18;93.97;97492.70;3684935;78;44100;-20
2021/04/05 21:15:57;;;;;;;1.20;0.77;;;;;;;-1.25;95.12;97497.58;3692298;78;44041;-20
2021/04/05 21:21:08;;;;;;;2.40;0.80;;;;;;;-1.25;95.16;97489.66;3687841;78;44074;-20
2021/04/05 21:26:19;;;;;;;2.97;0.73;;;;;;;-1.34;96.23;97482.36;3707157;78;44683;-20
2021/04/05 21:31:29;;;;;;;2.10;0.73;;;;;;;-1.31;97.41;97483.47;3705599;78;43348;-20
2021/04/05 21:36:38;;;;;;;1.67;1.00;;;;;;;-1.18;93.80;97500.63;3632290;79;43258;-20
2021/04/05 21:41:47;;;;;;;2.77;0.87;;;;;;;-1.22;94.46;97499.61;3700359;78;43467;-21
2021/04/05 21:46:54;;;;;;;1.87;0.70;;;;;;;-1.28;94.99;97497.80;3627231;79;44549;-19
2021/04/05 21:52:03;;;;;;;1.10;0.70;;;;;;;-1.46;96.97;97486.73;3619716;79;44133;-28
2021/04/05 21:57:12;;;;;;;4.40;1.10;;;;;;;-1.40;95.83;97510.06;3688511;78;44029;-19
2021/04/05 22:02:20;;;;;;;1.77;0.67;;;;;;;-1.40;96.57;97493.37;3704685;78;44201;-19
2021/04/05 22:07:29;;;;;;;2.77;0.90;;;;;;;-1.47;99.06;97494.30;3633955;79;43753;-20
2021/04/05 22:12:36;;;;;;;2.33;0.87;;;;;;;-1.58;100.00;97493.72;3623010;79;43413;-23
2021/04/05 22:17:43;;;;;;;3.07;0.80;;;;;;;-1.60;100.00;97502.25;3687870;78;43337;-23
2021/04/05 22:22:55;;;;;;;4.07;0.90;;;;;;;-1.62;100.00;97497.55;3682243;78;43261;-24
2021/04/05 22:28:01;;;;;;;1.87;0.70;;;;;;;-1.66;100.00;97493.91;3610075;79;43751;-24
2021/04/05 22:33:08;;;;;;;1.70;0.80;;;;;;;-1.65;100.00;97505.67;3684404;78;44017;-20
2021/04/05 22:38:17;;;;;;;3.00;0.80;;;;;;;-1.53;99.75;97506.63;3668896;79;43455;-25
2021/04/05 22:43:26;;;;;;;1.77;1.00;;;;;;;-1.62;100.00;97500.64;3668086;79;44085;-24
2021/04/05 22:48:32;;;;;;;2.87;0.90;;;;;;;-1.71;100.00;97502.98;3664996;79;44523;-24
2021/04/05 22:53:52;;;;;;;2.30;0.90;;;;;;;-1.66;100.00;97497.38;3667446;79;43491;-24
2021/04/05 22:59:07;;;;;;;1.43;1.10;;;;;;;-1.77;100.00;97507.85;3663328;79;43661;-24
2021/04/05 23:04:13;;;;;;;3.17;0.80;;;;;;;-1.72;100.00;97495.19;3683698;78;44537;-24
2021/04/05 23:09:24;;;;;;;3.17;0.93;;;;;;;-1.66;100.00;97517.19;3674511;78;44078;-24
2021/04/05 23:14:33;;;;;;;1.53;1.00;;;;;;;-1.69;100.00;97509.96;3692425;78;44050;-24
2021/04/05 23:19:42;;;;;;;2.27;0.90;;;;;;;-1.74;100.00;97505.84;3704488;78;44059;-24
2021/04/05 23:24:54;;;;;;;1.77;0.80;;;;;;;-1.75;100.00;97501.50;3705515;78;43515;-24
2021/04/05 23:30:05;;;;;;;7.90;1.37;;;;;;;-1.71;100.00;97518.83;3703137;78;43010;-24
2021/04/05 23:35:15;;;;;;;2.20;0.87;;;;;;;-1.87;100.00;97505.86;3706234;78;44027;-24
2021/04/05 23:40:24;;;;;;;3.43;0.80;;;;;;;-1.96;100.00;97510.45;3706003;78;43361;-24
2021/04/05 23:45:38;;;;;;;3.47;1.00;;;;;;;-1.88;100.00;97513.41;3684781;78;44050;-24
2021/04/05 23:50:47;;;;;;;2.73;0.90;;;;;;;-1.89;100.00;97515.67;3705551;78;44054;-24
2021/04/05 23:55:54;;;;;;;2.83;1.00;;;;;;;-2.09;100.00;97520.16;3696852;78;44093;-24
